Time;durP1;ratioP1;P1;durP2;ratioP2;P2;SDS_P1;SDS_P2;PMS_P1;PMS_P2;Temp;Humidity;BMP_temperature;BMP_pressure;BME280_temperature;BME280_humidity;BME280_pressure;Samples;Min_cycle;Max_cycle;Signal;HPM_P1;HPM_P2
2024/03/26 00:00:11;;;;;;;2.35;0.77;;;13.10;52.00;;;;;;2367352;53;20970;-64
2024/03/26 00:02:38;;;;;;;2.62;0.85;;;13.00;52.00;;;;;;2368092;53;21697;-66
2024/03/26 00:05:07;;;;;;;2.90;0.85;;;13.00;51.90;;;;;;2365742;53;20952;-66
2024/03/26 00:07:37;;;;;;;2.28;0.70;;;13.00;51.90;;;;;;2351728;53;21022;-66
2024/03/26 00:10:05;;;;;;;2.05;0.77;;;13.00;51.80;;;;;;2354687;53;20955;-66
2024/03/26 00:12:31;;;;;;;2.03;0.80;;;13.00;52.00;;;;;;2362977;53;21001;-65
2024/03/26 00:14:58;;;;;;;2.35;0.88;;;12.90;51.90;;;;;;2368145;53;20927;-66
2024/03/26 00:17:24;;;;;;;2.17;0.80;;;12.90;51.90;;;;;;2355747;54;21030;-67
2024/03/26 00:19:51;;;;;;;2.12;0.62;;;12.90;51.90;;;;;;2361213;53;20945;-64
2024/03/26 00:22:17;;;;;;;1.25;0.50;;;12.80;51.80;;;;;;2368001;53;21023;-66
2024/03/26 00:24:43;;;;;;;1.80;0.85;;;12.80;51.90;;;;;;2368779;53;20982;-67
2024/03/26 00:27:09;;;;;;;3.20;0.75;;;12.80;51.90;;;;;;2368529;53;20938;-66
2024/03/26 00:29:36;;;;;;;2.92;0.60;;;12.70;51.90;;;;;;2368359;53;21789;-65
2024/03/26 00:32:02;;;;;;;1.75;0.60;;;12.70;51.80;;;;;;2368446;53;20966;-67
2024/03/26 00:34:28;;;;;;;1.52;0.60;;;12.70;51.80;;;;;;2368139;53;21360;-68
2024/03/26 00:36:55;;;;;;;2.10;0.80;;;12.70;51.90;;;;;;2350913;53;21109;-67
2024/03/26 00:39:21;;;;;;;2.53;0.75;;;12.60;51.90;;;;;;2365922;53;21395;-66
2024/03/26 00:41:47;;;;;;;2.17;0.80;;;12.60;51.90;;;;;;2368711;53;20930;-67
2024/03/26 00:44:14;;;;;;;1.35;0.70;;;12.60;52.00;;;;;;2367710;53;21442;-67
2024/03/26 00:46:40;;;;;;;2.08;0.70;;;12.60;52.00;;;;;;2368559;53;20989;-67
2024/03/26 00:49:06;;;;;;;3.08;0.98;;;12.50;52.00;;;;;;2367862;53;20910;-66
2024/03/26 00:51:34;;;;;;;2.12;0.68;;;12.50;52.00;;;;;;2368361;53;20942;-65
2024/03/26 00:54:00;;;;;;;1.52;0.57;;;12.50;52.10;;;;;;2367024;53;20946;-67
2024/03/26 00:56:26;;;;;;;1.67;0.50;;;12.50;52.00;;;;;;2368981;53;21551;-65
2024/03/26 00:58:53;;;;;;;1.55;0.60;;;12.50;52.10;;;;;;2369387;53;20974;-66
2024/03/26 01:01:19;;;;;;;1.42;0.50;;;12.50;52.10;;;;;;2358961;53;21019;-66
2024/03/26 01:03:46;;;;;;;0.93;0.47;;;12.50;52.10;;;;;;2344348;53;21001;-65
2024/03/26 01:06:13;;;;;;;1.17;0.40;;;12.50;52.20;;;;;;2344823;53;20998;-67
2024/03/26 01:08:39;;;;;;;2.22;0.82;;;12.50;52.20;;;;;;2368115;53;20938;-66
2024/03/26 01:11:06;;;;;;;1.87;0.60;;;12.50;52.20;;;;;;2368704;53;20990;-65
2024/03/26 01:13:33;;;;;;;1.10;0.50;;;12.40;52.20;;;;;;2365795;53;20946;-66
2024/03/26 01:15:59;;;;;;;1.08;0.40;;;12.40;52.40;;;;;;2352683;53;21572;-66
2024/03/26 01:18:25;;;;;;;2.47;0.47;;;12.40;52.30;;;;;;2359433;53;21014;-64
2024/03/26 01:20:51;;;;;;;1.15;0.40;;;12.40;52.30;;;;;;2367926;53;21265;-65
2024/03/26 01:23:18;;;;;;;1.77;0.50;;;12.40;52.30;;;;;;2367414;53;21088;-66
2024/03/26 01:25:45;;;;;;;1.50;0.50;;;12.40;52.30;;;;;;2368197;53;20982;-67
2024/03/26 01:28:11;;;;;;;2.03;0.55;;;12.40;52.40;;;;;;2358895;54;20923;-67
2024/03/26 01:30:38;;;;;;;1.30;0.60;;;12.40;52.40;;;;;;2357222;53;20942;-65
2024/03/26 01:33:04;;;;;;;2.25;0.75;;;12.30;52.30;;;;;;2368389;53;20969;-67
2024/03/26 01:35:36;;;;;;;1.12;0.55;;;12.30;52.40;;;;;;2368265;53;20928;-67
2024/03/26 01:38:02;;;;;;;1.50;0.50;;;12.30;52.30;;;;;;2368449;53;20955;-66
2024/03/26 01:40:29;;;;;;;0.82;0.40;;;12.30;52.40;;;;;;2355752;53;20935;-65
2024/03/26 01:42:57;;;;;;;2.40;0.55;;;12.30;52.50;;;;;;2360536;53;21001;-65
2024/03/26 01:45:24;;;;;;;1.58;0.73;;;12.30;52.40;;;;;;2367340;53;21058;-66
2024/03/26 01:47:50;;;;;;;2.47;0.65;;;12.20;52.30;;;;;;2368728;53;20973;-67
2024/03/26 01:50:17;;;;;;;2.90;0.77;;;12.20;52.40;;;;;;2368125;53;20958;-67
2024/03/26 01:52:44;;;;;;;2.30;0.85;;;12.20;52.40;;;;;;2368459;53;21033;-64
2024/03/26 01:55:12;;;;;;;1.90;0.75;;;12.10;52.30;;;;;;2368199;53;21014;-65
2024/03/26 01:57:38;;;;;;;1.85;0.65;;;12.10;52.40;;;;;;2367595;53;21379;-66
2024/03/26 02:00:05;;;;;;;1.85;0.85;;;12.10;52.40;;;;;;2367454;53;21274;-65
2024/03/26 02:02:32;;;;;;;1.77;0.77;;;12.00;52.40;;;;;;2367913;53;20949;-66
2024/03/26 02:05:00;;;;;;;2.35;0.90;;;12.00;52.50;;;;;;2368485;53;20970;-66
2024/03/26 02:07:26;;;;;;;2.17;0.80;;;12.00;52.60;;;;;;2368086;53;20946;-67
2024/03/26 02:09:56;;;;;;;2.30;0.90;;;12.00;52.70;;;;;;2368399;53;20934;-67
2024/03/26 02:12:22;;;;;;;2.47;1.12;;;12.00;52.70;;;;;;2367541;53;20927;-64
2024/03/26 02:14:48;;;;;;;2.70;0.98;;;12.00;52.90;;;;;;2368521;53;20950;-65
2024/03/26 02:17:16;;;;;;;2.53;1.10;;;11.90;52.90;;;;;;2368010;53;20961;-65
2024/03/26 02:19:42;;;;;;;1.95;0.80;;;11.90;53.00;;;;;;2368483;53;20920;-67
2024/03/26 02:22:09;;;;;;;2.28;0.80;;;11.90;53.10;;;;;;2368589;53;21391;-68
2024/03/26 02:24:36;;;;;;;1.87;0.70;;;11.90;53.10;;;;;;2354368;53;21160;-65
2024/03/26 02:27:02;;;;;;;1.02;0.50;;;11.90;53.30;;;;;;2367893;53;21353;-66
2024/03/26 02:29:29;;;;;;;1.75;0.68;;;11.90;53.40;;;;;;2367535;53;20942;-65
2024/03/26 02:31:56;;;;;;;2.78;0.70;;;11.90;53.40;;;;;;2368350;53;20982;-65
2024/03/26 02:34:22;;;;;;;1.85;0.68;;;11.90;53.40;;;;;;2367924;53;20961;-66
2024/03/26 02:36:48;;;;;;;1.65;0.70;;;11.90;53.50;;;;;;2368481;53;21093;-65
2024/03/26 02:39:15;;;;;;;2.58;1.00;;;11.80;53.40;;;;;;2367909;53;20934;-66
2024/03/26 02:41:41;;;;;;;2.15;0.80;;;11.80;53.50;;;;;;2368646;53;20965;-65
2024/03/26 02:44:07;;;;;;;1.65;0.73;;;11.80;53.50;;;;;;2368096;53;20957;-66
2024/03/26 02:46:34;;;;;;;1.55;0.60;;;11.80;53.60;;;;;;2367630;53;21022;-66
2024/03/26 02:49:00;;;;;;;1.55;0.60;;;11.80;53.60;;;;;;2368530;53;20962;-66
2024/03/26 02:51:27;;;;;;;1.73;0.75;;;11.90;53.70;;;;;;2361808;54;21011;-65
2024/03/26 02:53:59;;;;;;;2.08;0.70;;;11.80;53.70;;;;;;2355161;53;21178;-66
2024/03/26 02:56:25;;;;;;;2.17;0.73;;;11.80;53.60;;;;;;2367591;53;20990;-66
2024/03/26 02:58:51;;;;;;;2.55;1.00;;;11.80;53.80;;;;;;2353355;54;21469;-65
2024/03/26 03:01:18;;;;;;;3.15;1.23;;;11.80;53.90;;;;;;2362405;53;21026;-66
2024/03/26 03:03:44;;;;;;;3.10;1.35;;;11.80;53.90;;;;;;2368539;53;20990;-66
2024/03/26 03:06:10;;;;;;;3.25;1.50;;;11.80;53.90;;;;;;2368964;53;20938;-66
2024/03/26 03:08:39;;;;;;;2.70;1.20;;;11.80;53.90;;;;;;2368116;53;21013;-66
2024/03/26 03:11:06;;;;;;;2.85;1.30;;;11.80;54.00;;;;;;2368485;53;21430;-65
2024/03/26 03:13:32;;;;;;;3.25;1.35;;;11.70;53.90;;;;;;2367779;53;21132;-65
2024/03/26 03:15:58;;;;;;;2.85;1.00;;;11.70;54.00;;;;;;2369078;53;20950;-65
2024/03/26 03:18:26;;;;;;;3.17;1.37;;;11.70;54.00;;;;;;2368525;53;20937;-66
2024/03/26 03:20:52;;;;;;;2.35;1.15;;;11.70;54.10;;;;;;2368640;53;20966;-65
2024/03/26 03:23:18;;;;;;;3.10;1.25;;;11.70;54.10;;;;;;2367802;53;20933;-65
2024/03/26 03:25:52;;;;;;;2.72;1.48;;;11.70;54.10;;;;;;2368270;53;21768;-66
2024/03/26 03:28:18;;;;;;;3.10;1.40;;;11.70;54.20;;;;;;2367902;53;20902;-66
2024/03/26 03:30:44;;;;;;;3.03;1.40;;;11.70;54.20;;;;;;2368550;53;21015;-66
2024/03/26 03:33:11;;;;;;;4.60;1.60;;;11.70;54.30;;;;;;2369305;53;20973;-66
2024/03/26 03:35:41;;;;;;;2.92;1.27;;;11.70;54.30;;;;;;2367551;53;21005;-65
2024/03/26 03:38:08;;;;;;;2.60;0.90;;;11.70;54.40;;;;;;2369110;53;21725;-66
2024/03/26 03:40:36;;;;;;;1.50;0.62;;;11.70;54.40;;;;;;2354088;53;21072;-67
2024/03/26 03:43:02;;;;;;;1.83;0.60;;;11.70;54.40;;;;;;2342557;54;20958;-66
2024/03/26 03:45:28;;;;;;;2.62;1.12;;;11.70;54.40;;;;;;2367888;53;21034;-66
2024/03/26 03:47:56;;;;;;;1.83;0.60;;;11.80;54.60;;;;;;2368586;53;20978;-65
2024/03/26 03:50:23;;;;;;;2.90;0.80;;;11.70;54.50;;;;;;2367848;53;20972;-66
2024/03/26 03:52:49;;;;;;;1.50;0.70;;;11.70;54.50;;;;;;2368032;53;21060;-65
2024/03/26 03:55:16;;;;;;;1.98;0.70;;;11.70;54.60;;;;;;2368472;54;21480;-65
2024/03/26 03:57:42;;;;;;;1.87;0.90;;;11.70;54.60;;;;;;2368298;53;21279;-66
2024/03/26 04:00:09;;;;;;;2.08;0.85;;;11.70;54.60;;;;;;2368372;53;21351;-66
2024/03/26 04:02:35;;;;;;;2.37;1.08;;;11.70;54.60;;;;;;2367923;53;21293;-65
2024/03/26 04:05:02;;;;;;;2.22;0.88;;;11.70;54.70;;;;;;2368156;53;21423;-67
2024/03/26 04:07:28;;;;;;;1.90;0.77;;;11.70;54.70;;;;;;2367516;53;21561;-65
2024/03/26 04:09:58;;;;;;;2.33;1.00;;;11.70;54.80;;;;;;2368464;53;21289;-64
2024/03/26 04:12:24;;;;;;;2.90;1.17;;;11.70;54.80;;;;;;2367722;53;20993;-64
2024/03/26 04:14:51;;;;;;;3.53;1.15;;;11.70;54.80;;;;;;2368789;53;20950;-67
2024/03/26 04:17:17;;;;;;;3.58;1.33;;;11.70;54.90;;;;;;2368065;53;20962;-64
2024/03/26 04:19:44;;;;;;;2.85;1.15;;;11.70;54.80;;;;;;2368698;53;21021;-66
2024/03/26 04:22:10;;;;;;;2.75;0.95;;;11.70;54.70;;;;;;2368956;53;20938;-65
2024/03/26 04:24:36;;;;;;;3.28;1.30;;;11.70;54.70;;;;;;2367755;53;21448;-66
2024/03/26 04:27:03;;;;;;;3.92;1.30;;;11.60;54.60;;;;;;2368397;53;21455;-67
2024/03/26 04:29:30;;;;;;;4.72;1.12;;;11.60;54.60;;;;;;2368037;53;21005;-67
2024/03/26 04:31:56;;;;;;;2.62;1.17;;;11.60;54.50;;;;;;2368446;53;21888;-66
2024/03/26 04:34:23;;;;;;;3.72;1.50;;;11.60;54.60;;;;;;2367741;53;20985;-66
2024/03/26 04:36:58;;;;;;;4.10;1.45;;;11.50;54.60;;;;;;2368081;53;20990;-66
2024/03/26 04:39:27;;;;;;;3.20;1.30;;;11.50;54.60;;;;;;2367744;53;21815;-67
2024/03/26 04:41:54;;;;;;;3.10;1.15;;;11.50;54.70;;;;;;2368402;53;20997;-68
2024/03/26 04:44:21;;;;;;;3.12;1.23;;;11.50;54.80;;;;;;2367998;53;21712;-66
2024/03/26 04:46:47;;;;;;;2.72;1.00;;;11.50;54.80;;;;;;2367903;53;20950;-66
2024/03/26 04:49:13;;;;;;;2.90;1.30;;;11.50;54.80;;;;;;2367865;53;21304;-67
2024/03/26 04:51:40;;;;;;;2.97;1.25;;;11.50;54.90;;;;;;2367904;53;21013;-66
2024/03/26 04:54:06;;;;;;;3.22;1.30;;;11.50;54.90;;;;;;2368305;53;21370;-65
2024/03/26 04:56:35;;;;;;;4.55;1.40;;;11.50;55.00;;;;;;2367454;53;21703;-67
2024/03/26 04:59:03;;;;;;;4.10;1.42;;;11.50;55.00;;;;;;2367771;53;21025;-65
2024/03/26 05:01:30;;;;;;;3.65;1.40;;;11.50;55.00;;;;;;2369522;53;20952;-66
2024/03/26 05:03:56;;;;;;;3.62;1.87;;;11.40;54.80;;;;;;2369597;53;21005;-65
2024/03/26 05:06:31;;;;;;;3.28;1.55;;;11.60;55.00;;;;;;2346102;53;21495;-66
2024/03/26 05:08:58;;;;;;;3.78;1.65;;;11.60;55.00;;;;;;2351642;53;21599;-66
2024/03/26 05:11:28;;;;;;;7.20;1.58;;;11.50;55.50;;;;;;2364009;53;20962;-68
2024/03/26 05:13:56;;;;;;;4.37;1.83;;;11.60;55.00;;;;;;2367647;53;20997;-66
2024/03/26 05:16:25;;;;;;;3.70;2.03;;;11.60;55.10;;;;;;2367784;53;21487;-67
2024/03/26 05:18:52;;;;;;;4.20;2.00;;;11.60;55.10;;;;;;2365785;53;21685;-66
2024/03/26 05:21:19;;;;;;;4.03;1.85;;;11.50;55.00;;;;;;2350936;53;20958;-66
2024/03/26 05:23:46;;;;;;;3.35;1.52;;;11.60;55.10;;;;;;2367595;53;20969;-65
2024/03/26 05:26:12;;;;;;;4.05;1.70;;;11.50;55.00;;;;;;2354589;53;20923;-65
2024/03/26 05:28:39;;;;;;;4.30;2.00;;;11.50;55.10;;;;;;2360792;53;21782;-66
2024/03/26 05:31:19;;;;;;;3.80;1.77;;;11.50;55.10;;;;;;2368637;53;20989;-65
2024/03/26 05:33:48;;;;;;;3.33;1.65;;;11.50;55.00;;;;;;2368932;53;20998;-68
2024/03/26 05:36:15;;;;;;;4.68;1.70;;;11.60;55.30;;;;;;2348618;54;20953;-66
2024/03/26 05:38:41;;;;;;;3.55;1.65;;;11.60;55.30;;;;;;2367783;53;21029;-66
2024/03/26 05:41:08;;;;;;;3.95;1.77;;;11.60;56.00;;;;;;2367741;53;21326;-65
2024/03/26 05:43:34;;;;;;;4.78;1.80;;;11.60;55.40;;;;;;2367330;53;21009;-65
2024/03/26 05:46:00;;;;;;;3.97;1.80;;;11.60;55.30;;;;;;2347412;53;21015;-66
2024/03/26 05:48:27;;;;;;;3.17;1.55;;;11.60;55.30;;;;;;2368324;53;20962;-65
2024/03/26 05:50:53;;;;;;;2.60;1.20;;;11.60;55.30;;;;;;2367772;53;20997;-66
2024/03/26 05:53:22;;;;;;;2.67;1.25;;;11.60;55.40;;;;;;2367054;53;21820;-66
2024/03/26 05:55:48;;;;;;;2.60;1.20;;;11.60;55.40;;;;;;2365722;53;21832;-66
2024/03/26 05:58:15;;;;;;;2.67;1.10;;;11.60;55.40;;;;;;2351433;53;21507;-64
2024/03/26 06:00:41;;;;;;;3.67;1.20;;;11.60;55.40;;;;;;2367300;53;21390;-65
2024/03/26 06:03:09;;;;;;;3.90;1.77;;;11.60;55.40;;;;;;2356641;53;20984;-66
2024/03/26 06:05:35;;;;;;;2.45;1.02;;;11.60;55.40;;;;;;2348524;54;21315;-67
2024/03/26 06:08:01;;;;;;;3.58;1.35;;;11.60;55.60;;;;;;2358683;53;21285;-67
2024/03/26 06:10:29;;;;;;;3.75;1.65;;;11.60;55.50;;;;;;2367666;53;20926;-65
2024/03/26 06:12:56;;;;;;;3.90;1.50;;;11.60;55.50;;;;;;2368088;53;20966;-67
2024/03/26 06:15:22;;;;;;;3.67;1.62;;;11.60;55.60;;;;;;2366475;53;21003;-65
2024/03/26 06:17:48;;;;;;;4.43;2.00;;;11.60;55.60;;;;;;2368155;53;20985;-65
2024/03/26 06:20:18;;;;;;;4.15;1.67;;;11.60;55.60;;;;;;2367818;53;21049;-66
2024/03/26 06:22:45;;;;;;;5.70;1.67;;;11.60;55.60;;;;;;2368169;53;21443;-66
2024/03/26 06:25:11;;;;;;;4.03;1.90;;;11.60;55.70;;;;;;2368395;53;21045;-66
2024/03/26 06:27:37;;;;;;;3.50;1.42;;;11.60;55.70;;;;;;2368113;53;20949;-67
2024/03/26 06:30:05;;;;;;;3.12;1.52;;;11.60;55.70;;;;;;2368158;53;21494;-66
2024/03/26 06:32:31;;;;;;;3.40;1.80;;;11.60;56.30;;;;;;2368123;53;21023;-65
2024/03/26 06:34:58;;;;;;;4.10;1.75;;;11.60;55.70;;;;;;2367995;53;21285;-66
2024/03/26 06:37:24;;;;;;;3.92;1.77;;;11.60;55.80;;;;;;2367988;53;20942;-66
2024/03/26 06:39:50;;;;;;;3.70;1.90;;;11.60;55.80;;;;;;2368181;53;21831;-66
2024/03/26 06:42:16;;;;;;;3.62;1.67;;;11.60;55.90;;;;;;2348821;54;21833;-65
2024/03/26 06:44:43;;;;;;;4.07;1.55;;;11.60;55.90;;;;;;2366231;53;20977;-67
2024/03/26 06:47:10;;;;;;;3.28;1.60;;;11.70;56.10;;;;;;2367490;53;20953;-67
2024/03/26 06:49:40;;;;;;;5.30;1.58;;;11.70;56.10;;;;;;2368243;53;20918;-67
2024/03/26 06:52:07;;;;;;;3.58;1.55;;;11.70;56.20;;;;;;2367818;53;21733;-67
2024/03/26 06:54:33;;;;;;;2.95;1.40;;;11.70;56.20;;;;;;2367575;53;20958;-66
2024/03/26 06:57:00;;;;;;;2.62;1.12;;;11.80;56.30;;;;;;2367232;53;21832;-66
2024/03/26 06:59:26;;;;;;;3.05;1.40;;;11.80;56.20;;;;;;2367000;53;21006;-65
2024/03/26 07:01:53;;;;;;;3.45;1.42;;;11.80;56.20;;;;;;2368265;53;20950;-66
2024/03/26 07:04:19;;;;;;;3.30;1.30;;;11.80;56.20;;;;;;2367848;53;21013;-66
2024/03/26 07:06:46;;;;;;;2.78;1.42;;;11.90;56.20;;;;;;2367405;53;21034;-67
2024/03/26 07:09:12;;;;;;;3.80;1.45;;;11.80;56.10;;;;;;2367724;53;20998;-66
2024/03/26 07:11:38;;;;;;;2.70;1.20;;;11.90;56.20;;;;;;2352145;53;20986;-66
2024/03/26 07:14:04;;;;;;;3.03;1.30;;;11.90;56.30;;;;;;2345559;53;21019;-66
2024/03/26 07:16:31;;;;;;;2.22;1.20;;;12.00;56.40;;;;;;2367742;53;21004;-67
2024/03/26 07:18:58;;;;;;;3.65;1.48;;;12.00;56.40;;;;;;2367883;53;21021;-66
2024/03/26 07:21:24;;;;;;;3.53;1.45;;;12.00;56.40;;;;;;2367949;53;20990;-65
2024/03/26 07:23:52;;;;;;;2.37;1.10;;;12.00;56.40;;;;;;2367960;53;20946;-66
2024/03/26 07:26:18;;;;;;;2.80;1.20;;;12.10;56.50;;;;;;2367554;53;20941;-67
2024/03/26 07:28:44;;;;;;;2.80;1.27;;;12.10;56.50;;;;;;2367471;53;21381;-66
2024/03/26 07:31:11;;;;;;;3.25;1.20;;;12.20;56.50;;;;;;2367819;53;20930;-65
2024/03/26 07:33:38;;;;;;;2.87;1.37;;;12.20;56.50;;;;;;2367684;53;21202;-65
2024/03/26 07:36:04;;;;;;;4.05;1.20;;;12.20;56.50;;;;;;2355540;53;21101;-65
2024/03/26 07:38:32;;;;;;;2.67;1.10;;;12.20;56.50;;;;;;2349411;53;21042;-67
2024/03/26 07:40:59;;;;;;;2.58;1.23;;;12.30;56.50;;;;;;2368451;53;20930;-66
2024/03/26 07:43:25;;;;;;;3.12;1.37;;;12.30;56.50;;;;;;2366128;53;21281;-67
2024/03/26 07:45:51;;;;;;;3.42;1.27;;;12.30;56.50;;;;;;2339477;53;21032;-65
2024/03/26 07:48:18;;;;;;;2.83;1.20;;;12.40;56.50;;;;;;2339479;53;21352;-66
2024/03/26 07:50:45;;;;;;;3.40;1.27;;;12.40;56.50;;;;;;2338564;53;20963;-69
2024/03/26 07:53:11;;;;;;;3.03;1.15;;;12.40;56.50;;;;;;2339605;53;21017;-65
2024/03/26 07:55:38;;;;;;;2.97;1.23;;;12.50;56.50;;;;;;2339815;53;20924;-66
2024/03/26 07:58:06;;;;;;;3.00;1.52;;;12.50;56.50;;;;;;2339309;53;21032;-67
2024/03/26 08:00:33;;;;;;;2.80;1.10;;;12.60;56.60;;;;;;2338978;53;20925;-67
2024/03/26 08:03:02;;;;;;;2.35;1.15;;;12.60;56.50;;;;;;2339497;53;21731;-66
2024/03/26 08:05:29;;;;;;;2.65;1.23;;;12.60;56.40;;;;;;2339706;53;21048;-66
2024/03/26 08:07:55;;;;;;;2.85;1.10;;;12.70;56.40;;;;;;2340042;53;21452;-66
2024/03/26 08:10:21;;;;;;;2.72;1.23;;;12.70;56.40;;;;;;2339094;53;21343;-67
2024/03/26 08:12:48;;;;;;;3.78;1.30;;;12.80;56.50;;;;;;2339475;53;20983;-66
2024/03/26 08:15:14;;;;;;;2.65;1.15;;;12.80;56.70;;;;;;2339086;53;21188;-67
2024/03/26 08:17:40;;;;;;;2.35;1.10;;;12.90;56.50;;;;;;2342447;53;20972;-66
2024/03/26 08:20:10;;;;;;;2.75;1.20;;;12.90;56.60;;;;;;2336720;53;21827;-67
2024/03/26 08:22:39;;;;;;;3.35;1.30;;;13.00;56.70;;;;;;2342100;53;20995;-68
2024/03/26 08:25:06;;;;;;;2.37;1.17;;;13.10;56.70;;;;;;2335363;53;21000;-65
2024/03/26 08:27:32;;;;;;;3.20;1.33;;;13.20;56.70;;;;;;2338772;53;21000;-67
2024/03/26 08:29:58;;;;;;;3.80;1.55;;;13.20;56.50;;;;;;2339146;53;20920;-67
2024/03/26 08:32:25;;;;;;;3.83;1.40;;;13.30;56.60;;;;;;2338702;54;21453;-65
2024/03/26 08:34:51;;;;;;;3.03;1.10;;;13.30;56.50;;;;;;2339167;53;20948;-68
2024/03/26 08:37:18;;;;;;;3.35;1.33;;;13.40;56.60;;;;;;2339477;53;20933;-66
2024/03/26 08:39:44;;;;;;;3.03;1.25;;;13.50;56.80;;;;;;2339838;53;21263;-66
2024/03/26 08:42:12;;;;;;;3.40;1.50;;;13.60;56.80;;;;;;2333646;54;21317;-69
2024/03/26 08:44:40;;;;;;;2.60;1.25;;;13.60;56.70;;;;;;2313379;54;21055;-66
2024/03/26 08:47:10;;;;;;;4.65;1.30;;;13.70;56.80;;;;;;2332384;54;21055;-65
2024/03/26 08:49:40;;;;;;;3.35;1.40;;;13.80;56.80;;;;;;2324678;54;21024;-67
2024/03/26 08:52:09;;;;;;;3.17;1.30;;;13.90;56.70;;;;;;2316338;54;21780;-65
2024/03/26 08:54:36;;;;;;;3.33;1.17;;;14.00;56.80;;;;;;2339784;54;20964;-66
2024/03/26 08:57:03;;;;;;;3.03;1.10;;;14.10;57.00;;;;;;2327858;54;21831;-66
2024/03/26 08:59:29;;;;;;;3.17;1.00;;;14.20;57.10;;;;;;2325398;54;21028;-66
2024/03/26 09:01:56;;;;;;;3.92;1.23;;;14.30;57.00;;;;;;2322749;54;21000;-66
2024/03/26 09:04:28;;;;;;;2.60;0.90;;;14.40;56.90;;;;;;2343516;54;21411;-66
2024/03/26 09:06:58;;;;;;;3.08;0.90;;;14.60;56.50;;;;;;2343302;53;20992;-65
2024/03/26 09:09:30;;;;;;;3.28;0.93;;;14.70;56.60;;;;;;2338748;53;21076;-66
2024/03/26 09:11:56;;;;;;;2.97;1.20;;;14.80;56.60;;;;;;2340386;53;21012;-65
2024/03/26 09:14:24;;;;;;;2.33;0.90;;;14.90;56.50;;;;;;2340386;53;21028;-67
2024/03/26 09:17:00;;;;;;;2.40;1.10;;;14.90;56.30;;;;;;2332771;53;21006;-66
2024/03/26 09:19:31;;;;;;;3.65;1.27;;;15.00;56.30;;;;;;2350939;54;20961;-65
2024/03/26 09:21:57;;;;;;;3.70;1.27;;;15.10;56.30;;;;;;2578195;52;20973;-66
2024/03/26 09:24:23;;;;;;;1.87;0.80;;;15.20;56.40;;;;;;2349704;53;21033;-67
2024/03/26 09:26:52;;;;;;;2.67;1.00;;;15.30;56.60;;;;;;2367727;53;20981;-66
2024/03/26 09:29:18;;;;;;;3.40;1.00;;;15.40;56.60;;;;;;2367279;53;21729;-68
2024/03/26 09:31:44;;;;;;;2.30;1.00;;;15.50;56.70;;;;;;2363889;53;21448;-69
2024/03/26 09:34:11;;;;;;;3.47;1.02;;;15.60;56.80;;;;;;2350562;53;21021;-66
2024/03/26 09:36:37;;;;;;;2.70;1.05;;;15.80;56.90;;;;;;2367585;53;20992;-66
2024/03/26 09:39:03;;;;;;;2.75;1.02;;;15.90;57.00;;;;;;2367619;53;21510;-68
2024/03/26 09:41:34;;;;;;;2.90;1.10;;;16.00;57.00;;;;;;2367805;53;20994;-67
2024/03/26 09:44:00;;;;;;;4.97;1.30;;;16.10;56.90;;;;;;2370477;53;21290;-69
2024/03/26 09:46:26;;;;;;;2.80;1.40;;;16.30;56.80;;;;;;2366474;53;21415;-66
2024/03/26 09:48:53;;;;;;;2.85;1.00;;;16.40;56.60;;;;;;2348154;53;21320;-67
2024/03/26 09:51:19;;;;;;;2.45;0.93;;;16.50;56.30;;;;;;2367459;53;21598;-68
2024/03/26 09:53:46;;;;;;;2.33;0.93;;;16.60;56.30;;;;;;2368398;53;21854;-67
2024/03/26 09:56:17;;;;;;;3.15;1.10;;;16.60;56.20;;;;;;2367501;53;20958;-68
2024/03/26 09:58:44;;;;;;;2.40;1.00;;;16.70;56.10;;;;;;2367788;53;20933;-67
2024/03/26 10:01:10;;;;;;;2.83;1.10;;;16.80;55.90;;;;;;2367606;53;20981;-67
2024/03/26 10:03:42;;;;;;;2.40;0.90;;;16.80;55.70;;;;;;2368578;53;20921;-67
2024/03/26 10:06:12;;;;;;;2.62;1.00;;;16.90;55.50;;;;;;2368208;53;21281;-67
2024/03/26 10:08:38;;;;;;;3.45;1.37;;;17.00;55.40;;;;;;2364450;53;21800;-67
2024/03/26 10:11:18;;;;;;;3.55;1.33;;;17.10;55.40;;;;;;2352805;53;20922;-67
2024/03/26 10:13:46;;;;;;;2.60;1.00;;;17.10;55.20;;;;;;2358281;53;20979;-67
2024/03/26 10:16:13;;;;;;;2.85;1.25;;;17.10;55.10;;;;;;2357011;53;21025;-67
2024/03/26 10:18:39;;;;;;;4.95;1.27;;;17.10;55.00;;;;;;2368330;53;20979;-66
2024/03/26 10:21:06;;;;;;;2.92;1.20;;;17.20;54.90;;;;;;2348026;54;21035;-67
2024/03/26 10:23:34;;;;;;;4.37;1.50;;;17.20;54.70;;;;;;2344924;53;20938;-67
2024/03/26 10:26:00;;;;;;;3.12;1.17;;;17.30;54.70;;;;;;2368186;53;20974;-67
2024/03/26 10:28:29;;;;;;;3.60;1.00;;;17.30;54.50;;;;;;2367468;53;20970;-67
2024/03/26 10:30:56;;;;;;;3.78;1.10;;;17.30;54.40;;;;;;2368224;53;21376;-67
2024/03/26 10:33:24;;;;;;;2.55;1.00;;;17.30;54.20;;;;;;2361857;53;21003;-67
2024/03/26 10:35:54;;;;;;;2.47;1.12;;;17.30;54.10;;;;;;2342795;54;20990;-68
2024/03/26 10:38:21;;;;;;;3.05;0.95;;;17.40;54.10;;;;;;2359659;53;21317;-66
2024/03/26 10:41:01;;;;;;;3.15;1.48;;;17.40;54.20;;;;;;2368608;53;21345;-68
2024/03/26 10:43:28;;;;;;;3.22;1.20;;;17.50;54.40;;;;;;2367053;53;20973;-67
2024/03/26 10:45:55;;;;;;;2.78;1.17;;;17.50;54.30;;;;;;2348779;53;21408;-68
2024/03/26 10:48:29;;;;;;;3.10;1.10;;;17.50;54.20;;;;;;2367999;53;20942;-67
2024/03/26 10:50:55;;;;;;;3.22;1.10;;;17.50;54.20;;;;;;2368838;53;20934;-67
2024/03/26 10:53:22;;;;;;;2.67;1.08;;;17.50;54.30;;;;;;2367431;53;20962;-67
2024/03/26 10:55:48;;;;;;;3.65;1.27;;;17.60;54.40;;;;;;2367358;53;21772;-67
2024/03/26 10:58:15;;;;;;;2.90;1.12;;;17.60;54.40;;;;;;2366719;53;20961;-67
2024/03/26 11:00:42;;;;;;;2.42;1.00;;;17.60;54.20;;;;;;2348306;53;21425;-67
2024/03/26 11:03:09;;;;;;;3.35;1.10;;;17.70;54.30;;;;;;2367950;53;21482;-67
2024/03/26 11:05:37;;;;;;;3.87;1.20;;;17.70;54.30;;;;;;2367942;53;21006;-67
2024/03/26 11:08:13;;;;;;;2.30;0.93;;;17.70;54.30;;;;;;2368019;53;20966;-68
2024/03/26 11:10:58;;;;;;;3.78;1.10;;;17.70;54.20;;;;;;2354114;53;20945;-67
2024/03/26 11:13:29;;;;;;;2.65;1.15;;;17.80;53.50;;;;;;2365097;53;20941;-69
2024/03/26 11:15:56;;;;;;;3.35;1.10;;;17.80;54.20;;;;;;2368881;53;21420;-67
2024/03/26 11:18:29;;;;;;;2.53;1.10;;;17.90;54.20;;;;;;2367061;53;21493;-67
2024/03/26 11:21:10;;;;;;;4.18;1.35;;;17.90;53.90;;;;;;2368510;53;21238;-70
2024/03/26 11:23:42;;;;;;;3.20;1.12;;;17.90;53.60;;;;;;2340011;54;20952;-68
2024/03/26 11:26:26;;;;;;;4.28;1.30;;;18.00;53.70;;;;;;2344651;54;20925;-66
2024/03/26 11:28:54;;;;;;;2.67;0.90;;;18.00;53.10;;;;;;2360088;54;21522;-67
2024/03/26 11:31:25;;;;;;;3.62;1.20;;;17.90;53.70;;;;;;2367345;53;20938;-68
2024/03/26 11:33:52;;;;;;;2.70;1.00;;;18.00;53.60;;;;;;2367965;53;21439;-66
2024/03/26 11:36:19;;;;;;;2.40;1.00;;;18.00;53.40;;;;;;2367173;53;21411;-68
2024/03/26 11:38:48;;;;;;;3.35;1.02;;;18.00;53.50;;;;;;2367279;53;20914;-67
2024/03/26 11:41:27;;;;;;;2.92;1.10;;;18.00;53.50;;;;;;2366534;53;20922;-68
2024/03/26 11:43:57;;;;;;;3.28;1.05;;;18.10;53.60;;;;;;2367758;53;21514;-68
2024/03/26 11:46:23;;;;;;;2.50;0.90;;;18.10;53.60;;;;;;2367668;53;20965;-68
2024/03/26 11:48:57;;;;;;;3.25;1.15;;;18.10;53.70;;;;;;2355005;54;21003;-68
2024/03/26 11:51:23;;;;;;;5.32;0.95;;;18.20;53.20;;;;;;2362429;53;20953;-68
2024/03/26 11:53:53;;;;;;;2.20;0.98;;;18.20;53.50;;;;;;2366312;53;21387;-67
2024/03/26 11:56:20;;;;;;;2.40;1.00;;;18.30;53.50;;;;;;2366979;53;20965;-70
2024/03/26 11:58:48;;;;;;;2.20;1.00;;;18.30;53.50;;;;;;2358506;53;20975;-67
2024/03/26 12:01:21;;;;;;;3.10;1.05;;;18.30;53.40;;;;;;2356436;53;21795;-67
2024/03/26 12:03:53;;;;;;;;;;;18.30;53.20;;;;;;2356427;53;20916;-67
2024/03/26 12:06:21;;;;;;;4.28;1.10;;;18.40;52.90;;;;;;2363258;53;20089;-67
2024/03/26 12:08:48;;;;;;;2.97;1.17;;;18.40;53.60;;;;;;2366949;53;21864;-67
2024/03/26 12:11:18;;;;;;;1.92;0.90;;;18.40;53.60;;;;;;2367544;53;21436;-68
2024/03/26 12:13:46;;;;;;;6.87;1.67;;;18.40;53.50;;;;;;2367239;53;21693;-68
2024/03/26 12:16:26;;;;;;;4.35;1.17;;;18.50;53.60;;;;;;2368197;53;21135;-67
2024/03/26 12:19:00;;;;;;;3.35;1.23;;;18.50;52.90;;;;;;2352567;53;21031;-70
2024/03/26 12:21:27;;;;;;;2.42;1.00;;;18.60;53.20;;;;;;2343366;54;21014;-70
2024/03/26 12:23:54;;;;;;;2.75;1.00;;;18.60;53.30;;;;;;2368272;53;21014;-67
2024/03/26 12:26:20;;;;;;;4.43;1.60;;;18.60;53.10;;;;;;2367914;53;21388;-69
2024/03/26 12:28:47;;;;;;;2.83;1.12;;;18.70;53.00;;;;;;2367677;53;21038;-68
2024/03/26 12:31:16;;;;;;;2.97;1.10;;;18.70;52.80;;;;;;2368160;53;20934;-68
2024/03/26 12:33:44;;;;;;;2.67;1.10;;;18.70;52.80;;;;;;2368777;53;21706;-67
2024/03/26 12:36:13;;;;;;;2.00;0.85;;;18.80;53.10;;;;;;2367950;53;20958;-67
2024/03/26 12:38:40;;;;;;;5.40;1.30;;;18.80;53.30;;;;;;2368499;53;20941;-67
2024/03/26 12:41:07;;;;;;;2.50;1.00;;;18.90;53.40;;;;;;2368543;53;20929;-67
2024/03/26 12:43:36;;;;;;;3.37;0.90;;;18.90;53.20;;;;;;2368135;53;21471;-67
2024/03/26 12:46:04;;;;;;;2.80;1.10;;;18.90;53.30;;;;;;2367487;53;21002;-69
2024/03/26 12:48:31;;;;;;;2.62;1.10;;;19.00;53.50;;;;;;2367079;53;21702;-70